KMYV/MYV METAR and TAF weather

Enter ICAO airport designator
Station Type Date Time Source
KMYV METAR 2019/04/18 22:53 UTC NOAA

KMYV 182253Z AUTO VRB03KT 10SM CLR 28/13 A3005 RMK AO2 SLP178 T02780128


Station Type Date Time Source
KMYV Decoded METAR 2019/04/18 22:53 UTC NOAA

MARYSVILLE YUBA COUNTY, CA, United States (KMYV) 39-06N 121-34W 21M
Apr 18, 2019 - 06:53 PM EDT / 2019.04.18 2253 UTC
Wind: Variable at 3 MPH (3 KT):0
Visibility: 10 mile(s):0
Sky conditions: clear
Temperature: 82.0 F (27.8 C)
Dew Point: 55.0 F (12.8 C)
Relative Humidity: 39%
Pressure (altimeter): 30.05 in. Hg (1017 hPa)
ob: KMYV 182253Z AUTO VRB03KT 10SM CLR 28/13 A3005 RMK AO2 SLP178 T02780128
cycle: 23

Station Type Date Time Source
KMYV TAF UTC NOAA

Error!

Example: see airport list